Airfield :
LOGIN :

Register | Disclaimer

   EN    FR    IT 

 










Legend :    VFR   Marginal VFR   IFR   Intensive IFR   Very Intensive IFR
Visi :
Ceiling :
>= 8 km
>= 3000ft
5 to 8 km
1000 to 3000 ft
1500m to 5 km
500 to 1000 ft
800 to 1500m
200 to 500 ft
< 800m
< 200 ft
Symbols :   Thunderstorms  Fog  Heavy snow  Heavy precipitations  Wind > 20 kt
SIGMETs :     Misc.  Thunderstorms  Icing  Turbulence  Mountain Waves  Volcanic Ashes







- Airport Elevation : 209 ft
- IATA code : CLY
- Download approach charts


LFKC - Calvi

CURRENT METAR :
  • 160000Z AUTO 19004KT 9999 OVC100 18/12 Q1015

EXPIRED METARs :
  • 152330Z AUTO 20004KT CAVOK 18/12 Q1015
  • 152300Z AUTO 20005KT CAVOK 18/12 Q1015
  • 152230Z AUTO 21005KT CAVOK 17/12 Q1015
  • 152200Z AUTO 21003KT CAVOK 17/12 Q1015
  • 152130Z AUTO 18003KT CAVOK 18/12 Q1015

TAF TAF LFKC
Valid from the 15 at 15:00 until the 16 at 15:00 UTC


151400Z 1515/1615 36006KT CAVOK TX23/1612Z TN15/1604Z
BECMG 1518/1520 18004KT FEW050 BKN110
TEMPO 1600/1612 7000 RA SCT023 BKN040
BECMG 1612/1614 SCT070
ATIS : +33 4 95 65 82 49
No reported NOTAMs for that airfield.



MET'MAP, your aeronautical weather chart ! - Copyright ORBIFLY December 2007 - Disclaimer

ORBIFLY MET'MAP TEAM :

Programming & Development : Alexandra Zaïnal
Concept & Development : Baudouin d'Aumeries
Co-Development & Prog : Marc-Olivier Méhu
Technical & hardware support : Manuel Goepfert

Contact : metmap@orbifly.com




SOURCES & CREDITS :

   NOAA